Time;durP1;ratioP1;P1;durP2;ratioP2;P2;SDS_P1;SDS_P2;PMS_P1;PMS_P2;Temp;Humidity;BMP_temperature;BMP_pressure;BME280_temperature;BME280_humidity;BME280_pressure;Samples;Min_cycle;Max_cycle;Signal;HPM_P1;HPM_P2
2021/11/16 00:00:41;;;;;;;49.17;24.07;;;;;;;4.02;100.00;101825.59;5085903;28;20341;-85
2021/11/16 00:03:08;;;;;;;51.83;24.03;;;;;;;4.01;100.00;101824.75;5090795;28;20332;-83
2021/11/16 00:05:37;;;;;;;51.00;24.97;;;;;;;4.04;100.00;101829.06;5085811;28;20205;-83
2021/11/16 00:08:05;;;;;;;49.30;25.30;;;;;;;4.03;100.00;101823.06;5088775;28;20292;-86
2021/11/16 00:10:32;;;;;;;56.17;25.47;;;;;;;4.03;100.00;101827.31;5083205;28;20209;-84
2021/11/16 00:12:58;;;;;;;53.13;25.77;;;;;;;4.03;100.00;101824.75;5090488;28;20238;-86
2021/11/16 00:15:25;;;;;;;50.97;25.77;;;;;;;4.01;100.00;101818.69;5086771;28;20316;-85
2021/11/16 00:17:52;;;;;;;52.30;24.47;;;;;;;4.00;100.00;101816.97;5091109;28;20199;-83
2021/11/16 00:20:19;;;;;;;56.63;25.03;;;;;;;3.99;100.00;101818.66;5085662;28;20265;-87
2021/11/16 00:22:47;;;;;;;53.13;26.07;;;;;;;3.96;100.00;101816.91;5086369;28;20287;-87
2021/11/16 00:25:30;;;;;;;53.90;24.67;;;;;;;3.94;100.00;101821.16;5090882;28;20204;-88
2021/11/16 00:27:56;;;;;;;51.73;24.80;;;;;;;3.97;100.00;101822.91;5093784;28;20197;-86
2021/11/16 00:30:23;;;;;;;50.77;23.30;;;;;;;3.98;100.00;101820.38;5090186;28;20212;-86
2021/11/16 00:32:49;;;;;;;47.37;24.97;;;;;;;4.00;100.00;101830.72;5090190;28;20315;-85
2021/11/16 00:35:16;;;;;;;52.57;25.07;;;;;;;3.98;100.00;101825.53;5084163;28;20221;-86
2021/11/16 00:37:43;;;;;;;48.70;23.73;;;;;;;3.96;100.00;101824.63;5085653;28;20998;-86
2021/11/16 00:40:16;;;;;;;52.77;25.07;;;;;;;3.94;100.00;101820.25;5088248;28;20271;-83
2021/11/16 00:42:43;;;;;;;50.70;24.47;;;;;;;3.96;100.00;101824.63;5084755;28;20222;-86
2021/11/16 00:45:10;;;;;;;50.37;24.40;;;;;;;3.96;100.00;101824.63;5089391;28;20368;-84
2021/11/16 00:47:37;;;;;;;49.57;24.80;;;;;;;3.97;100.00;101817.75;5083099;28;20217;-88
2021/11/16 00:50:05;;;;;;;52.47;25.13;;;;;;;3.98;100.00;101828.13;5088207;28;20292;-87
2021/11/16 00:52:32;;;;;;;50.63;25.00;;;;;;;3.98;100.00;101825.53;5087375;28;21631;-88
2021/11/16 00:54:58;;;;;;;51.70;24.63;;;;;;;3.97;100.00;101825.50;5089742;28;20217;-88
2021/11/16 00:57:26;;;;;;;50.90;25.27;;;;;;;3.97;100.00;101817.75;5099735;28;20421;-85
2021/11/16 00:59:53;;;;;;;52.50;24.37;;;;;;;3.98;100.00;101819.50;5086247;28;20214;-86
2021/11/16 01:02:19;;;;;;;50.00;25.20;;;;;;;3.98;100.00;101820.38;5083920;28;20309;-85
2021/11/16 01:04:48;;;;;;;50.83;25.63;;;;;;;3.97;100.00;101823.81;5085496;28;20211;-84
2021/11/16 01:07:16;;;;;;;53.40;24.87;;;;;;;3.96;100.00;101826.34;5083197;28;20211;-86
2021/11/16 01:09:43;;;;;;;48.50;24.83;;;;;;;3.95;100.00;101812.56;5085818;28;20247;-88
2021/11/16 01:12:11;;;;;;;50.53;25.30;;;;;;;3.98;100.00;101819.50;5084575;28;20241;-83
2021/11/16 01:14:39;;;;;;;48.00;25.00;;;;;;;3.95;100.00;101809.13;5086086;28;20254;-82
2021/11/16 01:17:05;;;;;;;56.03;25.43;;;;;;;3.93;100.00;101803.91;5087182;28;20202;-84
2021/11/16 01:19:32;;;;;;;51.17;25.70;;;;;;;3.89;100.00;101812.44;5087904;28;20202;-83
2021/11/16 01:21:59;;;;;;;51.97;24.90;;;;;;;3.90;100.00;101798.69;5089065;28;20218;-87
2021/11/16 01:24:26;;;;;;;56.93;26.57;;;;;;;3.90;100.00;101806.44;5086669;28;20206;-85
2021/11/16 01:26:52;;;;;;;52.83;26.07;;;;;;;3.91;100.00;101800.44;5086457;28;20604;-87
2021/11/16 01:29:20;;;;;;;51.03;26.67;;;;;;;3.89;100.00;101793.53;5086108;28;20213;-89
2021/11/16 01:31:51;;;;;;;50.50;25.30;;;;;;;3.89;100.00;101796.09;5088252;28;20230;-86
2021/11/16 01:34:23;;;;;;;54.87;25.90;;;;;;;3.91;100.00;101794.41;5088369;28;20200;-86
2021/11/16 01:36:50;;;;;;;46.13;24.60;;;;;;;3.90;100.00;101792.66;5085090;28;20690;-84
2021/11/16 01:39:16;;;;;;;54.67;26.47;;;;;;;3.87;100.00;101787.44;5085183;28;20198;-86
2021/11/16 01:41:43;;;;;;;56.70;26.53;;;;;;;3.83;100.00;101793.38;5087767;28;20364;-85
2021/11/16 01:44:09;;;;;;;54.73;26.60;;;;;;;3.82;100.00;101792.53;5088091;28;20285;-86
2021/11/16 01:46:36;;;;;;;56.73;27.23;;;;;;;3.81;100.00;101797.66;5088801;28;20211;-85
2021/11/16 01:49:04;;;;;;;51.50;27.20;;;;;;;3.77;100.00;101796.72;5086428;28;20208;-86
2021/11/16 01:51:31;;;;;;;56.53;28.43;;;;;;;3.79;100.00;101790.75;5088651;28;20245;-88
2021/11/16 01:54:02;;;;;;;54.83;27.57;;;;;;;3.76;100.00;101795.84;5084108;28;20223;-85
2021/11/16 01:56:29;;;;;;;54.43;27.37;;;;;;;3.77;100.00;101797.59;5085646;28;20706;-87
2021/11/16 01:58:58;;;;;;;58.50;28.33;;;;;;;3.76;100.00;101800.13;5084855;28;20284;-86
2021/11/16 02:01:24;;;;;;;54.27;27.53;;;;;;;3.76;100.00;101793.28;5089775;28;20312;-87
2021/11/16 02:03:51;;;;;;;56.70;26.60;;;;;;;3.76;100.00;101793.28;5087363;28;20213;-86
2021/11/16 02:06:22;;;;;;;53.17;26.47;;;;;;;3.76;100.00;101792.38;5086544;28;20298;-87
2021/11/16 02:08:50;;;;;;;58.43;27.53;;;;;;;3.77;100.00;101783.81;5086257;28;20198;-88
2021/11/16 02:11:18;;;;;;;55.80;27.07;;;;;;;3.77;100.00;101779.53;5085275;28;20661;-85
2021/11/16 02:13:45;;;;;;;54.03;26.97;;;;;;;3.76;100.00;101772.63;5085848;28;20230;-85
2021/11/16 02:16:12;;;;;;;59.63;27.20;;;;;;;3.75;100.00;101765.72;5087421;28;20711;-85
2021/11/16 02:18:39;;;;;;;54.80;27.47;;;;;;;3.76;100.00;101759.75;5088144;28;20205;-86
2021/11/16 02:21:08;;;;;;;52.27;25.93;;;;;;;3.75;100.00;101758.00;5091849;28;20223;-85
2021/11/16 02:23:37;;;;;;;56.37;26.73;;;;;;;3.76;100.00;101770.06;5092704;28;20190;-86
2021/11/16 02:26:04;;;;;;;55.77;27.00;;;;;;;3.76;100.00;101770.06;5092028;28;20212;-84
2021/11/16 02:28:31;;;;;;;55.70;27.47;;;;;;;3.79;100.00;101771.81;5090956;28;20726;-85
2021/11/16 02:30:57;;;;;;;61.90;27.67;;;;;;;3.77;100.00;101774.38;5088452;28;20245;-85
2021/11/16 02:33:24;;;;;;;55.80;27.10;;;;;;;3.78;100.00;101764.91;5090701;28;20251;-86
2021/11/16 02:35:51;;;;;;;59.03;27.57;;;;;;;3.76;100.00;101771.75;5084988;28;20940;-87
2021/11/16 02:38:21;;;;;;;54.90;25.53;;;;;;;3.76;100.00;101770.06;5089394;28;20197;-85
2021/11/16 02:40:48;;;;;;;60.97;28.93;;;;;;;3.76;100.00;101764.91;5083005;28;20299;-84
2021/11/16 02:43:15;;;;;;;57.80;27.77;;;;;;;3.77;100.00;101770.91;5087672;28;20213;-87
2021/11/16 02:45:42;;;;;;;63.03;28.27;;;;;;;3.76;100.00;101770.06;5086260;28;20833;-85
2021/11/16 02:48:15;;;;;;;58.70;27.00;;;;;;;3.74;100.00;101769.13;5091028;28;20279;-85
2021/11/16 02:50:44;;;;;;;57.03;27.07;;;;;;;3.76;100.00;101771.75;5088251;28;20292;-85
2021/11/16 02:53:11;;;;;;;59.17;27.63;;;;;;;3.76;100.00;101764.00;5092432;28;20303;-85
2021/11/16 02:55:40;;;;;;;59.23;27.77;;;;;;;3.76;100.00;101764.91;5088792;28;20312;-85
2021/11/16 02:58:07;;;;;;;61.97;28.40;;;;;;;3.76;100.00;101764.00;5089547;28;20583;-86
2021/11/16 03:00:36;;;;;;;59.13;27.23;;;;;;;3.77;100.00;101765.75;5088047;28;20201;-92
2021/11/16 03:03:02;;;;;;;58.37;28.33;;;;;;;3.76;100.00;101764.91;5089831;28;20229;-89
2021/11/16 03:05:31;;;;;;;65.37;28.87;;;;;;;3.77;100.00;101765.75;5089542;28;20212;-84
2021/11/16 03:07:59;;;;;;;60.57;28.27;;;;;;;3.77;100.00;101761.47;5089094;28;20247;-83
2021/11/16 03:10:28;;;;;;;61.37;26.70;;;;;;;3.78;100.00;101760.63;5091422;28;20245;-84
2021/11/16 03:12:56;;;;;;;60.27;29.30;;;;;;;3.78;100.00;101767.47;5090679;28;20312;-86
2021/11/16 03:15:22;;;;;;;61.00;28.47;;;;;;;3.78;100.00;101767.47;5092851;28;20300;-83
2021/11/16 03:17:49;;;;;;;64.17;28.77;;;;;;;3.81;100.00;101764.13;5086905;28;20683;-85
2021/11/16 03:20:17;;;;;;;59.37;26.43;;;;;;;3.81;100.00;101752.06;5092160;28;20248;-84
2021/11/16 03:22:46;;;;;;;55.90;28.20;;;;;;;3.81;100.00;101749.50;5089437;28;20213;-85
2021/11/16 03:25:14;;;;;;;59.77;26.90;;;;;;;3.78;100.00;101749.44;5091411;28;20259;-85
2021/11/16 03:27:43;;;;;;;62.70;27.13;;;;;;;3.79;100.00;101751.19;5086990;28;20194;-87
2021/11/16 03:30:12;;;;;;;61.47;28.10;;;;;;;3.79;100.00;101757.19;5090846;28;20259;-83
2021/11/16 03:32:39;;;;;;;61.73;27.63;;;;;;;3.79;100.00;101757.19;5083680;28;20658;-83
2021/11/16 03:35:08;;;;;;;63.67;27.43;;;;;;;3.79;100.00;101762.34;5088595;28;20267;-86
2021/11/16 03:37:39;;;;;;;66.77;28.00;;;;;;;3.81;100.00;101751.22;5088134;28;20255;-87
2021/11/16 03:40:08;;;;;;;62.27;27.80;;;;;;;3.82;100.00;101743.50;5086717;28;20218;-87
2021/11/16 03:42:36;;;;;;;66.87;27.47;;;;;;;3.82;100.00;101740.94;5087528;28;20217;-88
2021/11/16 03:45:03;;;;;;;66.97;27.83;;;;;;;3.82;100.00;101735.78;5091096;28;20261;-85
2021/11/16 03:47:31;;;;;;;69.77;28.63;;;;;;;3.81;100.00;101748.63;5088938;28;20204;-85
2021/11/16 03:49:58;;;;;;;62.77;28.10;;;;;;;3.82;100.00;101746.09;5090365;28;20206;-86
2021/11/16 03:52:26;;;;;;;64.73;28.07;;;;;;;3.84;100.00;101744.41;5089587;28;20782;-83
2021/11/16 03:54:52;;;;;;;63.70;27.53;;;;;;;3.83;100.00;101744.38;5088794;28;20206;-86
2021/11/16 03:57:19;;;;;;;59.33;26.90;;;;;;;3.81;100.00;101746.06;5089043;28;20221;-87
2021/11/16 03:59:45;;;;;;;70.27;29.27;;;;;;;3.84;100.00;101759.03;5087358;28;20334;-84
2021/11/16 04:02:12;;;;;;;66.77;28.83;;;;;;;3.84;100.00;101746.97;5088618;28;20218;-90
2021/11/16 04:04:42;;;;;;;65.23;28.00;;;;;;;3.84;100.00;101752.13;5087501;28;20673;-87
2021/11/16 04:07:08;;;;;;;63.90;27.80;;;;;;;3.83;100.00;101734.91;5090908;28;20219;-87
2021/11/16 04:09:36;;;;;;;64.70;27.70;;;;;;;3.84;100.00;101733.22;5087928;28;20198;-85
2021/11/16 04:12:03;;;;;;;67.73;27.40;;;;;;;3.83;100.00;101734.91;5090029;28;20221;-85
2021/11/16 04:14:29;;;;;;;66.17;28.07;;;;;;;3.85;100.00;101742.69;5086058;28;20191;-84
2021/11/16 04:16:56;;;;;;;67.40;27.10;;;;;;;3.86;100.00;101741.84;5085950;28;20758;-86
2021/11/16 04:19:23;;;;;;;68.83;28.37;;;;;;;3.85;100.00;101740.97;5086861;28;20209;-91
2021/11/16 04:21:51;;;;;;;71.27;30.00;;;;;;;3.86;100.00;101739.28;5089638;28;20395;-84
2021/11/16 04:24:17;;;;;;;69.07;29.43;;;;;;;3.84;100.00;101741.81;5087276;28;20202;-84
2021/11/16 04:26:44;;;;;;;71.57;28.20;;;;;;;3.85;100.00;101743.53;5090061;28;20206;-85
2021/11/16 04:29:10;;;;;;;68.77;28.00;;;;;;;3.87;100.00;101747.06;5089350;28;20284;-84
2021/11/16 04:31:37;;;;;;;68.87;28.37;;;;;;;3.89;100.00;101740.19;5088071;28;20307;-85
2021/11/16 04:34:04;;;;;;;68.87;28.07;;;;;;;3.87;100.00;101741.00;5087410;28;20209;-87
2021/11/16 04:36:31;;;;;;;71.37;28.03;;;;;;;3.88;100.00;101732.44;5085963;28;20629;-84
2021/11/16 04:38:59;;;;;;;70.63;28.13;;;;;;;3.87;100.00;101729.00;5087495;28;20209;-89
2021/11/16 04:41:26;;;;;;;70.27;28.20;;;;;;;3.89;100.00;101721.28;5085375;28;20253;-86
2021/11/16 04:43:55;;;;;;;72.57;28.30;;;;;;;3.90;100.00;101715.25;5086605;28;20823;-86
2021/11/16 04:46:24;;;;;;;72.67;29.57;;;;;;;3.89;100.00;101729.03;5087613;28;20255;-87
2021/11/16 04:48:56;;;;;;;73.80;30.70;;;;;;;3.89;100.00;101742.78;5087052;28;20205;-84
2021/11/16 05:02:33;;;;;;;71.13;27.80;;;;;;;3.94;100.00;101723.09;5087868;28;22557;-86
2021/11/16 05:02:45;;;;;;;79.43;29.70;;;;;;;3.93;100.00;101734.25;5082342;28;20206;-83
2021/11/16 05:05:15;;;;;;;74.50;28.93;;;;;;;3.93;100.00;101730.81;5084420;28;20199;-83
2021/11/16 05:07:44;;;;;;;83.47;27.97;;;;;;;3.92;100.00;101718.72;5086991;28;20285;-84
2021/11/16 05:10:13;;;;;;;78.00;29.13;;;;;;;3.94;100.00;101719.63;5084728;28;20650;-87
2021/11/16 05:12:40;;;;;;;76.80;28.33;;;;;;;3.92;100.00;101717.03;5085577;28;20776;-86
2021/11/16 05:15:10;;;;;;;78.00;28.50;;;;;;;3.92;100.00;101718.72;5081964;28;20560;-83
2021/11/16 05:17:37;;;;;;;78.33;28.13;;;;;;;3.89;100.00;101713.53;5082792;28;20267;-84
2021/11/16 05:20:06;;;;;;;84.50;29.07;;;;;;;3.88;100.00;101725.56;5086123;28;20198;-87
2021/11/16 05:22:32;;;;;;;87.57;29.73;;;;;;;3.89;100.00;101723.84;5087330;28;20224;-84
2021/11/16 05:24:59;;;;;;;77.03;29.73;;;;;;;3.91;100.00;101717.00;5085547;28;20202;-84
2021/11/16 05:27:27;;;;;;;79.27;29.10;;;;;;;3.92;100.00;101713.56;5084124;28;20216;-87
2021/11/16 05:29:53;;;;;;;85.07;28.93;;;;;;;3.93;100.00;101703.28;5080600;28;20670;-87
2021/11/16 05:32:20;;;;;;;75.87;27.37;;;;;;;3.91;100.00;101696.38;5088901;28;20221;-83
2021/11/16 05:34:47;;;;;;;81.40;28.83;;;;;;;3.91;100.00;101707.56;5083431;28;20209;-87
2021/11/16 05:37:14;;;;;;;79.73;28.70;;;;;;;3.92;100.00;101698.09;5086535;28;20214;-84
2021/11/16 05:39:41;;;;;;;71.83;28.27;;;;;;;3.93;100.00;101699.84;5083561;28;20292;-84
2021/11/16 05:42:07;;;;;;;68.13;28.67;;;;;;;3.92;100.00;101701.56;5089937;28;20221;-89
2021/11/16 05:44:35;;;;;;;70.53;26.30;;;;;;;3.94;100.00;101704.16;5086477;28;20202;-93
2021/11/16 05:47:02;;;;;;;69.47;28.00;;;;;;;3.93;100.00;101708.44;5083965;28;20293;-84
2021/11/16 05:49:31;;;;;;;68.37;27.83;;;;;;;3.94;100.00;101710.19;5085887;28;20625;-85
2021/11/16 05:51:59;;;;;;;81.77;30.10;;;;;;;3.95;100.00;101706.75;5087750;28;20233;-86
2021/11/16 05:54:28;;;;;;;72.73;27.97;;;;;;;3.93;100.00;101711.03;5088445;28;20231;-87
2021/11/16 05:56:55;;;;;;;71.77;27.30;;;;;;;3.93;100.00;101710.16;5089079;28;20274;-85
2021/11/16 05:59:23;;;;;;;75.27;26.27;;;;;;;3.91;100.00;101701.53;5090107;28;20226;-85
2021/11/16 06:01:51;;;;;;;70.07;28.40;;;;;;;3.91;100.00;101707.56;5090016;28;20218;-85
2021/11/16 06:04:18;;;;;;;78.07;27.87;;;;;;;3.92;100.00;101701.56;5086257;28;20252;-83
2021/11/16 06:06:44;;;;;;;70.17;26.00;;;;;;;3.90;100.00;101699.78;5084025;28;20233;-87
2021/11/16 06:09:11;;;;;;;75.97;25.80;;;;;;;3.90;100.00;101694.63;5086990;28;20201;-90
2021/11/16 06:11:38;;;;;;;72.13;26.37;;;;;;;3.92;100.00;101698.09;5083496;28;20283;-86
2021/11/16 06:14:05;;;;;;;72.57;27.27;;;;;;;3.90;100.00;101698.06;5089291;28;20772;-85
2021/11/16 06:16:32;;;;;;;73.50;26.73;;;;;;;3.89;100.00;101705.78;5086596;28;20222;-83
2021/11/16 06:19:01;;;;;;;74.60;27.53;;;;;;;3.88;100.00;101706.63;5087570;28;20271;-83
2021/11/16 06:21:29;;;;;;;75.10;27.03;;;;;;;3.87;100.00;101703.19;5083390;28;20233;-87
2021/11/16 06:23:56;;;;;;;73.13;25.87;;;;;;;3.88;100.00;101696.31;5088100;28;20236;-83
2021/11/16 06:26:24;;;;;;;69.93;25.40;;;;;;;3.91;100.00;101696.38;5085065;28;20205;-83
2021/11/16 06:28:51;;;;;;;84.17;27.43;;;;;;;3.87;100.00;101695.44;5089694;28;20210;-83
2021/11/16 06:31:20;;;;;;;72.13;28.27;;;;;;;3.86;100.00;101688.53;5088563;28;20314;-86
2021/11/16 06:33:48;;;;;;;74.53;28.13;;;;;;;3.82;100.00;101694.50;5087363;28;20198;-83
2021/11/16 06:36:16;;;;;;;64.37;25.47;;;;;;;3.86;100.00;101701.44;5086703;28;20661;-84
2021/11/16 06:38:42;;;;;;;67.10;25.80;;;;;;;3.86;100.00;101698.84;5088301;28;20201;-84
2021/11/16 06:41:09;;;;;;;74.37;26.07;;;;;;;3.87;100.00;101699.72;5087081;28;20290;-84
2021/11/16 06:43:36;;;;;;;66.30;26.73;;;;;;;3.90;100.00;101694.63;5087690;28;20194;-83
2021/11/16 06:46:05;;;;;;;73.70;25.87;;;;;;;3.90;100.00;101698.06;5084699;28;20605;-89
2021/11/16 06:48:31;;;;;;;66.33;25.63;;;;;;;3.92;100.00;101693.81;5087239;28;20297;-84
2021/11/16 06:50:59;;;;;;;66.00;25.30;;;;;;;3.95;100.00;101699.00;5088867;28;20198;-85
2021/11/16 06:53:29;;;;;;;71.87;28.23;;;;;;;3.96;100.00;101693.03;5087694;28;20308;-85
2021/11/16 06:55:56;;;;;;;66.63;25.70;;;;;;;3.97;100.00;101691.31;5088711;28;20281;-84
2021/11/16 06:58:23;;;;;;;60.90;25.37;;;;;;;4.01;100.00;101697.38;5085273;28;20288;-90
2021/11/16 07:00:51;;;;;;;66.00;25.97;;;;;;;4.02;100.00;101688.81;5091035;28;20200;-85
2021/11/16 07:03:18;;;;;;;67.87;25.47;;;;;;;4.05;100.00;101694.03;5088197;28;20229;-85
2021/11/16 07:05:48;;;;;;;67.07;25.13;;;;;;;4.07;100.00;101698.38;5091349;28;20195;-86
2021/11/16 07:08:29;;;;;;;59.87;24.77;;;;;;;4.07;100.00;101693.22;5085728;28;20267;-86
2021/11/16 07:11:14;;;;;;;62.60;24.30;;;;;;;4.07;100.00;101692.34;5087879;28;20208;-86
2021/11/16 07:13:56;;;;;;;66.60;25.27;;;;;;;4.10;100.00;101690.69;5085913;28;20201;-84
2021/11/16 07:16:23;;;;;;;63.90;24.97;;;;;;;4.12;100.00;101696.75;5088670;28;20324;-86
2021/11/16 07:18:51;;;;;;;60.53;24.57;;;;;;;4.12;100.00;101699.31;5086432;28;20253;-89
2021/11/16 07:21:19;;;;;;;58.23;23.53;;;;;;;4.15;100.00;101701.97;5085793;28;20231;-86
2021/11/16 07:24:00;;;;;;;59.70;24.73;;;;;;;4.14;100.00;101696.78;5089394;28;20200;-86
2021/11/16 07:26:27;;;;;;;59.23;23.90;;;;;;;4.15;100.00;101694.22;5086709;28;20199;-86
2021/11/16 07:28:53;;;;;;;60.53;24.00;;;;;;;4.19;100.00;101690.00;5088500;28;20285;-88
2021/11/16 07:31:22;;;;;;;61.50;25.60;;;;;;;4.22;100.00;101689.16;5088820;28;20221;-88
2021/11/16 07:33:49;;;;;;;80.97;27.80;;;;;;;4.25;100.00;101686.63;5090113;28;20194;-85
2021/11/16 07:36:17;;;;;;;61.17;24.20;;;;;;;4.29;100.00;101680.66;5089760;28;20265;-88
2021/11/16 07:38:46;;;;;;;59.93;25.30;;;;;;;4.30;100.00;101688.44;5090491;28;20197;-87
2021/11/16 07:41:20;;;;;;;55.77;23.70;;;;;;;4.29;100.00;101688.41;5087228;28;20228;-87
2021/11/16 07:43:47;;;;;;;59.53;24.30;;;;;;;4.33;100.00;101688.50;5089213;28;20292;-88
2021/11/16 07:46:13;;;;;;;62.93;24.03;;;;;;;4.35;100.00;101691.13;5088292;28;20186;-84
2021/11/16 07:48:41;;;;;;;56.93;23.37;;;;;;;4.37;100.00;101692.00;5088502;28;20205;-87
2021/11/16 07:51:12;;;;;;;58.33;23.53;;;;;;;4.36;100.00;101688.56;5088544;28;20198;-84
2021/11/16 07:53:40;;;;;;;57.33;21.93;;;;;;;4.38;100.00;101687.69;5090949;28;20201;-84
2021/11/16 07:56:09;;;;;;;63.90;24.30;;;;;;;4.42;100.00;101698.09;5088346;28;20657;-86
2021/11/16 07:58:40;;;;;;;62.20;23.47;;;;;;;4.45;100.00;101687.84;5089101;28;20616;-84
2021/11/16 08:01:10;;;;;;;62.17;25.50;;;;;;;4.48;100.00;101695.59;5086046;28;20568;-86
2021/11/16 08:03:51;;;;;;;56.87;23.13;;;;;;;4.49;100.00;101705.13;5085960;28;20208;-85
2021/11/16 08:06:25;;;;;;;61.13;22.90;;;;;;;4.50;100.00;101693.06;5089500;28;20879;-85
2021/11/16 08:09:06;;;;;;;55.57;23.23;;;;;;;4.51;100.00;101699.97;5085777;28;20225;-85
2021/11/16 08:11:37;;;;;;;54.70;23.07;;;;;;;4.54;100.00;101700.03;5090051;28;20676;-86
2021/11/16 08:14:07;;;;;;;52.83;23.70;;;;;;;4.58;100.00;101701.81;5086461;28;20206;-87
2021/11/16 08:16:35;;;;;;;55.60;24.37;;;;;;;4.62;100.00;101698.41;5090136;28;20198;-91
2021/11/16 08:19:07;;;;;;;52.53;22.20;;;;;;;4.62;100.00;101695.84;5088228;28;20214;-86
2021/11/16 08:21:36;;;;;;;54.17;22.77;;;;;;;4.65;100.00;101697.63;5090850;28;20223;-89
2021/11/16 08:24:06;;;;;;;56.97;23.90;;;;;;;4.70;100.00;101690.81;5086168;28;20925;-87
2021/11/16 08:26:35;;;;;;;53.27;22.77;;;;;;;4.78;100.00;101689.19;5090847;28;20213;-86
2021/11/16 08:29:02;;;;;;;51.63;21.97;;;;;;;4.82;100.00;101682.34;5085668;28;20189;-84
2021/11/16 08:31:37;;;;;;;47.47;23.13;;;;;;;4.79;100.00;101679.75;5089452;28;20241;-84
2021/11/16 08:34:04;;;;;;;49.23;22.27;;;;;;;4.86;100.00;101684.16;5084288;28;20198;-84
2021/11/16 08:36:41;;;;;;;56.30;22.53;;;;;;;4.89;100.00;101674.72;5086610;28;20195;-88
2021/11/16 08:39:08;;;;;;;54.27;21.87;;;;;;;4.87;100.00;101680.69;5086557;28;20684;-88
2021/11/16 08:41:35;;;;;;;57.83;22.40;;;;;;;4.93;100.00;101681.66;5084945;28;20225;-85
2021/11/16 08:44:12;;;;;;;52.93;22.40;;;;;;;4.97;100.00;101677.41;5088882;28;20194;-85
2021/11/16 08:46:40;;;;;;;51.57;22.53;;;;;;;5.03;100.00;101682.66;5087277;28;20206;-85
2021/11/16 08:49:07;;;;;;;51.97;22.67;;;;;;;5.04;100.00;101686.97;5086470;28;20198;-85
2021/11/16 08:51:41;;;;;;;51.03;23.20;;;;;;;5.14;100.00;101680.22;5085390;28;20249;-87
2021/11/16 08:54:08;;;;;;;52.70;22.63;;;;;;;5.22;100.00;101681.16;5090785;28;20751;-86
2021/11/16 08:56:38;;;;;;;43.97;20.97;;;;;;;5.20;100.00;101680.28;5085328;28;20190;-88
2021/11/16 08:59:11;;;;;;;51.50;22.87;;;;;;;5.19;100.00;101678.56;5089030;28;20226;-87
2021/11/16 09:01:38;;;;;;;49.07;20.50;;;;;;;5.19;100.00;101686.31;5084122;28;20258;-86
2021/11/16 09:04:08;;;;;;;52.80;23.80;;;;;;;5.19;100.00;101685.44;5090470;28;20240;-86
2021/11/16 09:06:40;;;;;;;52.87;21.90;;;;;;;5.23;100.00;101684.66;5082659;28;20805;-90
2021/11/16 09:09:10;;;;;;;49.80;21.73;;;;;;;5.25;100.00;101681.22;5089444;28;20194;-87
2021/11/16 09:11:38;;;;;;;43.20;20.00;;;;;;;5.26;100.00;101682.09;5085347;28;20325;-84
2021/11/16 09:14:11;;;;;;;44.40;21.83;;;;;;;5.32;100.00;101677.00;5086215;28;20316;-85
2021/11/16 09:16:39;;;;;;;47.50;21.57;;;;;;;5.34;100.00;101675.28;5086623;28;20254;-85
2021/11/16 09:19:08;;;;;;;49.70;20.37;;;;;;;5.39;100.00;101681.38;5085636;28;20258;-85
2021/11/16 09:21:38;;;;;;;46.40;22.00;;;;;;;5.44;100.00;101668.53;5087226;28;20217;-89
2021/11/16 09:24:07;;;;;;;48.17;21.93;;;;;;;5.42;100.00;101668.50;5084431;28;20206;-85
2021/11/16 09:26:40;;;;;;;48.93;22.50;;;;;;;5.48;100.00;101663.38;5086533;28;20190;-92
2021/11/16 09:29:12;;;;;;;42.40;19.77;;;;;;;5.53;100.00;101649.66;5082994;28;20207;-84
2021/11/16 09:31:42;;;;;;;40.80;20.23;;;;;;;5.59;100.00;101649.69;5087572;28;20572;-85
2021/11/16 09:34:24;;;;;;;48.83;21.13;;;;;;;5.66;100.00;101643.75;5086628;28;20198;-85
2021/11/16 09:36:53;;;;;;;56.23;20.43;;;;;;;5.61;100.00;101638.53;5082826;28;20203;-85
2021/11/16 09:39:22;;;;;;;41.17;19.57;;;;;;;5.57;100.00;101633.31;5082299;28;20202;-85
2021/11/16 09:41:52;;;;;;;41.03;19.40;;;;;;;5.66;100.00;101638.56;5087686;28;20317;-85
2021/11/16 09:44:23;;;;;;;42.03;19.83;;;;;;;5.65;100.00;101639.44;5084280;28;20751;-85
2021/11/16 09:46:54;;;;;;;39.73;19.83;;;;;;;5.58;100.00;101637.63;5083228;28;20206;-86
2021/11/16 09:49:30;;;;;;;37.67;18.20;;;;;;;5.67;100.00;101636.00;5087221;28;20235;-85
2021/11/16 09:52:01;;;;;;;38.13;18.87;;;;;;;5.78;100.00;101622.31;5085273;28;20622;-86
2021/11/16 09:54:28;;;;;;;37.67;18.97;;;;;;;5.92;100.00;101618.13;5086205;28;20186;-86
2021/11/16 09:57:13;;;;;;;39.10;19.20;;;;;;;5.89;100.00;101623.25;5082145;28;20202;-87
2021/11/16 09:59:42;;;;;;;36.80;18.90;;;;;;;5.87;100.00;101623.28;5086897;28;20194;-84
2021/11/16 10:02:21;;;;;;;40.27;19.27;;;;;;;5.81;100.00;101614.56;5082319;28;20284;-83
2021/11/16 10:04:51;;;;;;;39.77;19.13;;;;;;;5.83;100.00;101618.91;5087496;28;20247;-87
2021/11/16 10:07:19;;;;;;;38.37;18.37;;;;;;;5.83;100.00;101625.81;5080663;28;20193;-84
2021/11/16 10:09:47;;;;;;;34.70;17.83;;;;;;;5.80;100.00;101628.34;5086766;28;20816;-85
2021/11/16 10:12:17;;;;;;;33.87;18.60;;;;;;;5.87;100.00;101614.63;5081796;28;20222;-85
2021/11/16 10:14:44;;;;;;;37.00;18.73;;;;;;;5.94;100.00;101613.81;5087176;28;21057;-87
2021/11/16 10:17:11;;;;;;;37.03;19.83;;;;;;;6.15;100.00;101613.16;5080065;28;20560;-84
2021/11/16 10:19:39;;;;;;;34.03;17.67;;;;;;;6.21;100.00;101607.19;5084291;28;20642;-83
2021/11/16 10:22:11;;;;;;;37.87;18.33;;;;;;;6.18;100.00;101595.06;5085121;28;20727;-84
2021/11/16 10:24:39;;;;;;;35.80;18.63;;;;;;;6.13;100.00;101594.16;5080739;28;20206;-85
2021/11/16 10:27:32;;;;;;;36.13;17.87;;;;;;;6.03;100.00;101602.69;5084035;28;20190;-84
2021/11/16 10:30:12;;;;;;;32.47;16.80;;;;;;;5.92;100.00;101602.59;5082399;28;20218;-88
2021/11/16 10:32:40;;;;;;;30.37;17.20;;;;;;;5.94;100.00;101590.50;5098747;28;20279;-84
2021/11/16 10:35:08;;;;;;;33.17;18.30;;;;;;;5.85;100.00;101593.88;5079825;28;20199;-85
2021/11/16 10:37:46;;;;;;;35.73;18.03;;;;;;;5.81;100.00;101586.97;5085594;28;20626;-86
2021/11/16 10:40:14;;;;;;;39.10;19.47;;;;;;;5.84;100.00;101580.94;5083521;28;20202;-85
2021/11/16 10:42:43;;;;;;;41.03;19.20;;;;;;;5.92;100.00;101581.88;5090147;28;20713;-85
2021/11/16 10:45:14;;;;;;;36.60;19.40;;;;;;;6.09;100.00;101576.88;5090830;28;20194;-84
2021/11/16 10:47:41;;;;;;;34.63;18.03;;;;;;;6.13;100.00;101573.44;5089209;28;20233;-87
2021/11/16 10:50:10;;;;;;;37.10;18.17;;;;;;;6.20;100.00;101564.00;5083554;28;20198;-86
2021/11/16 10:52:38;;;;;;;33.27;17.97;;;;;;;6.23;100.00;101569.22;5086862;28;20225;-85
2021/11/16 10:55:08;;;;;;;35.73;18.97;;;;;;;6.18;100.00;101564.00;5087694;28;20383;-84
2021/11/16 10:57:57;;;;;;;37.37;18.67;;;;;;;6.11;100.00;101556.19;5086996;28;20225;-88
2021/11/16 11:00:37;;;;;;;34.73;17.33;;;;;;;6.01;100.00;101558.66;5086223;28;20202;-85
2021/11/16 11:03:28;;;;;;;36.83;18.30;;;;;;;5.96;100.00;101549.16;5084690;28;20221;-86
2021/11/16 11:05:56;;;;;;;34.33;17.77;;;;;;;5.94;100.00;101543.06;5086429;28;20202;-89
2021/11/16 11:08:48;;;;;;;35.43;18.60;;;;;;;5.84;100.00;101543.00;5084449;28;20699;-88
2021/11/16 11:11:23;;;;;;;38.20;18.67;;;;;;;5.79;100.00;101546.41;5087554;28;20324;-85
2021/11/16 11:13:54;;;;;;;36.67;18.67;;;;;;;5.82;100.00;101538.66;5089023;28;20284;-89
2021/11/16 11:16:22;;;;;;;34.33;18.50;;;;;;;5.88;100.00;101541.31;5088059;28;20915;-84
2021/11/16 11:18:50;;;;;;;42.00;19.93;;;;;;;5.92;100.00;101537.88;5087821;28;20214;-84
2021/11/16 11:21:25;;;;;;;39.17;19.30;;;;;;;5.95;100.00;101537.91;5087738;28;20636;-84
2021/11/16 11:23:55;;;;;;;36.83;18.80;;;;;;;6.04;100.00;101532.81;5088351;28;20788;-88
2021/11/16 11:26:33;;;;;;;39.13;18.93;;;;;;;6.05;100.00;101536.25;5086770;28;20198;-85